ジャカルタ の空港の天気 - METARとTAF

スカルノハッタ国際空港 ( WIII / CGK ) - インドネシア バンテン州、Cengkareng ( ジャカルタ近郊)
飛行場実況気象(Metar)
観測時間04/25 23:00 WIB (04/25 16:00 UTC)
風向・風速不定 2m/s
視程5000m
天気現象弱い雷雨
少しの雲 雲底高度 610m
全天の8割程度の雲 雲底高度 640m
気温26℃
湿度100%
気圧1011hPa
METARWIII 251600Z VRB03KT 5000 -TSRA FEW020CB BKN021 26/26 Q1011 NOSIG RMK CB TO NW
過去の天気等 Google飛行場航空写真 Wunderground天気予報

過去48時間のMETAR

飛行場予報(TAF)
発表時間: 4/25 18:00 WIB (4/25 11:00 UTC)
予報対象時間: 25日19時 WIB ~ 27日1時 WIB
風向・風速北北東 4m/s
視程8,000m
全天の4割程度の雲 雲底高度 610m
25日19時 WIB ~ 25日23時 WIB に一時的に
視程4,000m
天気現象弱い雷雨
少しの積乱雲 雲底高度 580m
全天の8割程度の雲 雲底高度 610m
25日23時 WIB ~ 26日1時 WIB に徐々に
風向・風速不定 3m/s
視程5,000m
天気現象煙霧
26日8時 WIB ~ 26日10時 WIB に徐々に
風向・風速北東 5m/s
視程10km以上
天気現象運行に影響にある天気現象が終了
TAF WIII 251100Z 2512/2618 03008KT 8000 SCT020
TEMPO 2512/2516 4000 -TSRA FEW019CB BKN020
BECMG 2516/2518 VRB05KT 5000 HZ
BECMG 2601/2603 04010KT 9999 NSW